createdAt,value
2018-06-30T00:02:23.360Z,3.00
2018-06-30T00:04:53.324Z,2.70
2018-06-30T00:07:23.489Z,3.00
2018-06-30T00:09:52.967Z,3.03
2018-06-30T00:12:22.185Z,3.50
2018-06-30T00:14:51.256Z,3.13
2018-06-30T00:17:20.574Z,3.00
2018-06-30T00:19:50.002Z,3.30
2018-06-30T00:22:19.300Z,3.40
2018-06-30T00:24:48.456Z,2.80
2018-06-30T00:27:22.715Z,3.23
2018-06-30T00:29:52.007Z,3.30
2018-06-30T00:32:21.210Z,3.23
2018-06-30T00:34:50.624Z,3.77
2018-06-30T00:37:20.507Z,3.30
2018-06-30T00:39:49.769Z,3.60
2018-06-30T00:42:19.317Z,3.53
2018-06-30T00:44:48.713Z,3.00
2018-06-30T00:47:17.946Z,3.23
2018-06-30T00:49:47.158Z,3.27
2018-06-30T00:52:16.328Z,3.20
2018-06-30T00:54:45.504Z,2.73
2018-06-30T00:57:14.664Z,3.60
2018-06-30T00:59:43.774Z,2.80
2018-06-30T01:02:13.366Z,3.03
2018-06-30T01:04:42.690Z,3.00
2018-06-30T01:07:11.851Z,3.10
2018-06-30T01:09:40.978Z,2.87
2018-06-30T01:12:10.172Z,3.00
2018-06-30T01:14:39.571Z,2.80
2018-06-30T01:17:08.924Z,3.20
2018-06-30T01:19:38.043Z,3.17
2018-06-30T01:22:07.452Z,2.63
2018-06-30T01:24:36.562Z,2.70
2018-06-30T01:27:05.924Z,2.73
2018-06-30T01:29:35.333Z,3.80
2018-06-30T01:32:04.424Z,3.07
2018-06-30T01:34:33.702Z,3.03
2018-06-30T01:37:03.080Z,3.00
2018-06-30T01:39:32.395Z,3.20
2018-06-30T01:42:01.564Z,3.00
2018-06-30T01:44:30.626Z,2.83
2018-06-30T01:46:59.836Z,2.97
2018-06-30T01:49:28.993Z,2.67
2018-06-30T01:51:58.250Z,2.77
2018-06-30T01:54:27.440Z,2.40
2018-06-30T01:56:56.730Z,2.70
2018-06-30T01:59:26.002Z,2.67
2018-06-30T02:01:55.546Z,2.47
2018-06-30T02:04:24.624Z,2.00
2018-06-30T02:06:53.931Z,2.03
2018-06-30T02:09:23.135Z,2.03
2018-06-30T02:11:52.289Z,2.07
2018-06-30T02:14:21.332Z,1.93
2018-06-30T02:16:50.482Z,1.57
2018-06-30T02:19:19.603Z,2.00
2018-06-30T02:21:48.797Z,1.70
2018-06-30T02:24:18.043Z,1.80
2018-06-30T02:26:47.088Z,1.80
2018-06-30T02:29:16.174Z,1.67
2018-06-30T02:31:45.163Z,2.10
2018-06-30T02:34:14.634Z,1.70
2018-06-30T02:36:43.912Z,1.73
2018-06-30T02:39:13.295Z,1.60
2018-06-30T02:41:42.548Z,1.30
2018-06-30T02:44:11.996Z,1.70
2018-06-30T02:46:41.386Z,1.53
2018-06-30T02:49:10.699Z,2.10
2018-06-30T02:51:39.792Z,1.67
2018-06-30T02:54:09.044Z,1.60
2018-06-30T02:56:39.058Z,2.00
2018-06-30T02:59:09.070Z,1.70
2018-06-30T03:01:38.717Z,2.10
2018-06-30T03:04:08.477Z,1.97
2018-06-30T03:06:37.900Z,2.07
2018-06-30T03:09:09.938Z,1.50
2018-06-30T03:11:40.281Z,1.80
2018-06-30T03:14:10.288Z,1.67
2018-06-30T03:16:40.301Z,1.53
2018-06-30T03:19:10.374Z,1.50
2018-06-30T03:21:40.509Z,1.63
2018-06-30T03:24:10.401Z,1.30
2018-06-30T03:26:40.430Z,1.50
2018-06-30T03:29:10.420Z,1.33
2018-06-30T03:31:40.607Z,1.60
2018-06-30T03:34:10.681Z,1.50
2018-06-30T03:36:40.732Z,1.30
2018-06-30T03:39:11.678Z,1.27
2018-06-30T03:41:42.001Z,1.33
2018-06-30T03:44:12.220Z,1.23
2018-06-30T03:46:42.475Z,1.10
2018-06-30T03:49:13.000Z,1.30
2018-06-30T03:51:43.016Z,1.07
2018-06-30T03:54:12.752Z,1.20
2018-06-30T03:56:42.753Z,1.60
2018-06-30T03:59:12.882Z,1.23
2018-06-30T04:01:43.096Z,1.13
2018-06-30T04:04:13.287Z,1.10
2018-06-30T04:06:43.173Z,0.90
2018-06-30T04:09:14.009Z,1.00
2018-06-30T04:11:43.984Z,0.80
2018-06-30T04:14:14.432Z,0.80
2018-06-30T04:16:44.566Z,1.07
2018-06-30T04:19:16.016Z,0.70
2018-06-30T04:21:46.876Z,1.10
2018-06-30T04:24:16.978Z,0.80
2018-06-30T04:26:47.870Z,0.83
2018-06-30T04:29:18.446Z,1.00
2018-06-30T04:31:48.800Z,0.83
2018-06-30T04:34:18.806Z,0.90
2018-06-30T04:36:48.779Z,0.70
2018-06-30T04:39:18.904Z,1.00
2018-06-30T04:41:49.641Z,0.80
2018-06-30T04:44:20.294Z,1.03
2018-06-30T04:46:50.739Z,1.00
2018-06-30T04:49:20.827Z,1.07
2018-06-30T04:51:50.759Z,0.50
2018-06-30T04:54:20.775Z,0.63
2018-06-30T04:56:50.644Z,0.60
2018-06-30T04:59:20.573Z,0.70
2018-06-30T05:01:50.663Z,0.73
2018-06-30T05:04:21.314Z,0.93
2018-06-30T05:06:50.886Z,0.80
2018-06-30T05:09:20.750Z,1.10
2018-06-30T05:11:50.505Z,0.80
2018-06-30T05:14:20.566Z,0.80
2018-06-30T05:16:51.163Z,0.80
2018-06-30T05:19:21.010Z,1.30
2018-06-30T05:21:50.535Z,0.80
2018-06-30T05:24:20.525Z,0.80
2018-06-30T05:26:50.232Z,0.80
2018-06-30T05:29:20.412Z,0.80
2018-06-30T05:31:50.337Z,0.53
2018-06-30T05:34:20.501Z,0.60
2018-06-30T05:36:50.647Z,0.70
2018-06-30T05:39:20.504Z,0.60
2018-06-30T05:41:50.492Z,0.60
2018-06-30T05:44:20.446Z,0.60
2018-06-30T05:46:50.767Z,0.80
2018-06-30T05:49:20.489Z,1.13
2018-06-30T05:51:50.379Z,0.90
2018-06-30T05:54:20.486Z,1.00
2018-06-30T05:56:50.569Z,0.70
2018-06-30T05:59:20.486Z,0.60
2018-06-30T06:01:50.345Z,0.63
2018-06-30T06:04:20.352Z,0.53
2018-06-30T06:06:50.287Z,0.80
2018-06-30T06:09:20.451Z,0.70
2018-06-30T06:11:50.351Z,0.67
2018-06-30T06:14:20.747Z,0.83
2018-06-30T06:16:50.392Z,0.80
2018-06-30T06:19:20.557Z,0.50
2018-06-30T06:21:50.741Z,0.57
2018-06-30T06:24:20.639Z,0.60
2018-06-30T06:26:50.709Z,0.80
2018-06-30T06:29:20.553Z,0.60
2018-06-30T06:31:50.444Z,1.27
2018-06-30T06:34:20.245Z,0.80
2018-06-30T06:36:50.333Z,0.60
2018-06-30T06:39:20.165Z,0.53
2018-06-30T06:41:50.046Z,0.80
2018-06-30T06:44:20.229Z,0.57
2018-06-30T06:46:50.127Z,0.70
2018-06-30T06:49:20.281Z,0.70
2018-06-30T06:51:50.179Z,0.80
2018-06-30T06:54:20.215Z,0.70
2018-06-30T06:56:50.626Z,0.60
2018-06-30T06:59:20.423Z,0.70
2018-06-30T07:01:50.364Z,0.60
2018-06-30T07:04:20.337Z,0.73
2018-06-30T07:06:50.256Z,0.60
2018-06-30T07:09:20.177Z,0.83
2018-06-30T07:11:50.228Z,0.80
2018-06-30T07:14:20.460Z,0.70
2018-06-30T07:16:50.846Z,0.50
2018-06-30T07:19:20.822Z,0.80
2018-06-30T07:21:50.422Z,0.97
2018-06-30T07:24:20.355Z,0.63
2018-06-30T07:26:50.513Z,0.63
2018-06-30T07:29:20.162Z,0.67
2018-06-30T07:31:50.344Z,0.73
2018-06-30T07:34:20.392Z,0.50
2018-06-30T07:36:50.472Z,0.70
2018-06-30T07:39:20.362Z,0.47
2018-06-30T07:41:49.855Z,0.80
2018-06-30T07:44:19.732Z,1.00
2018-06-30T07:46:49.520Z,0.90
2018-06-30T07:49:19.359Z,0.57
2018-06-30T07:51:49.556Z,0.67
2018-06-30T07:54:19.903Z,0.57
2018-06-30T07:56:50.288Z,0.73
2018-06-30T07:59:20.510Z,0.50
2018-06-30T08:01:50.397Z,0.60
2018-06-30T08:04:20.517Z,0.50
2018-06-30T08:06:50.154Z,0.80
2018-06-30T08:09:20.244Z,0.50
2018-06-30T08:11:49.824Z,0.60
2018-06-30T08:14:19.761Z,0.63
2018-06-30T08:16:49.573Z,0.80
2018-06-30T08:19:19.523Z,0.60
2018-06-30T08:21:49.711Z,0.60
2018-06-30T08:24:19.664Z,0.90
2018-06-30T08:26:49.522Z,0.50
2018-06-30T08:29:19.428Z,0.70
2018-06-30T08:31:49.525Z,0.40
2018-06-30T08:34:19.294Z,0.80
2018-06-30T08:36:49.108Z,0.60
2018-06-30T08:39:19.346Z,0.60
2018-06-30T08:41:49.537Z,0.60
2018-06-30T08:44:19.655Z,1.10
2018-06-30T08:46:49.783Z,0.60
2018-06-30T08:49:19.534Z,0.53
2018-06-30T08:51:49.440Z,0.57
2018-06-30T08:54:19.259Z,0.40
2018-06-30T08:56:49.408Z,0.60
2018-06-30T08:59:19.340Z,0.60
2018-06-30T09:01:49.301Z,0.60
2018-06-30T09:04:19.178Z,0.80
2018-06-30T09:06:49.112Z,0.50
2018-06-30T09:09:19.280Z,0.93
2018-06-30T09:11:48.654Z,0.50
2018-06-30T09:14:18.190Z,0.47
2018-06-30T09:16:47.914Z,0.40
2018-06-30T09:19:17.860Z,0.50
2018-06-30T09:21:47.968Z,0.70
2018-06-30T09:24:17.882Z,0.50
2018-06-30T09:26:47.551Z,0.70
2018-06-30T09:29:17.964Z,0.50
2018-06-30T09:31:47.687Z,0.37
2018-06-30T09:34:17.230Z,0.50
2018-06-30T09:36:46.755Z,0.50
2018-06-30T09:39:16.555Z,0.57
2018-06-30T09:41:46.352Z,0.50
2018-06-30T09:44:16.275Z,0.40
2018-06-30T09:46:45.826Z,0.80
2018-06-30T09:49:15.795Z,0.50
2018-06-30T09:51:45.612Z,0.50
2018-06-30T09:54:15.370Z,0.67
2018-06-30T09:56:45.439Z,0.70
2018-06-30T09:59:15.763Z,0.60
2018-06-30T10:01:45.682Z,0.67
2018-06-30T10:04:15.298Z,0.40
2018-06-30T10:06:45.418Z,0.70
2018-06-30T10:09:15.392Z,0.77
2018-06-30T10:11:45.328Z,0.60
2018-06-30T10:14:15.360Z,0.50
2018-06-30T10:16:45.366Z,0.53
2018-06-30T10:19:15.637Z,0.53
2018-06-30T10:21:45.272Z,0.50
2018-06-30T10:24:15.423Z,0.63
2018-06-30T10:26:45.323Z,0.50
2018-06-30T10:29:15.292Z,0.60
2018-06-30T10:31:45.405Z,0.63
2018-06-30T10:34:15.241Z,0.60
2018-06-30T10:36:45.160Z,0.60
2018-06-30T10:39:15.344Z,0.50
2018-06-30T10:41:45.361Z,0.60
2018-06-30T10:44:15.478Z,0.50
2018-06-30T10:46:45.504Z,0.80
2018-06-30T10:49:15.393Z,0.63
2018-06-30T10:51:45.363Z,1.07
2018-06-30T10:54:15.442Z,0.60
2018-06-30T10:56:45.375Z,0.40
2018-06-30T10:59:15.196Z,0.40
2018-06-30T11:01:45.387Z,0.50
2018-06-30T11:04:15.342Z,0.50
2018-06-30T11:06:45.406Z,0.40
2018-06-30T11:09:15.449Z,0.57
2018-06-30T11:11:45.367Z,0.70
2018-06-30T11:14:15.313Z,0.60
2018-06-30T11:16:45.191Z,0.60
2018-06-30T11:19:15.290Z,0.53
2018-06-30T11:21:45.163Z,0.50
2018-06-30T11:24:14.566Z,0.50
2018-06-30T11:26:44.321Z,0.60
2018-06-30T11:29:14.200Z,0.40
2018-06-30T11:31:44.410Z,0.60
2018-06-30T11:34:14.244Z,0.60
2018-06-30T11:36:43.711Z,0.50
2018-06-30T11:39:14.136Z,1.10
2018-06-30T11:41:44.246Z,1.00
2018-06-30T11:44:14.450Z,1.37
2018-06-30T11:46:44.657Z,1.30
2018-06-30T11:49:14.850Z,1.37
2018-06-30T11:51:44.912Z,2.30
2018-06-30T11:54:14.812Z,1.73
2018-06-30T11:56:45.054Z,1.70
2018-06-30T11:59:14.816Z,1.30
2018-06-30T12:01:44.686Z,1.30
2018-06-30T12:04:15.160Z,1.27
2018-06-30T12:06:44.662Z,1.03
2018-06-30T12:09:14.487Z,1.17
2018-06-30T12:11:44.314Z,0.60
2018-06-30T12:14:14.230Z,0.60
2018-06-30T12:16:44.177Z,0.60
2018-06-30T12:19:14.166Z,0.53
2018-06-30T12:21:44.222Z,0.70
2018-06-30T12:24:13.662Z,0.87
2018-06-30T12:26:43.309Z,0.70
2018-06-30T12:29:13.038Z,0.50
2018-06-30T12:31:43.060Z,0.47
2018-06-30T12:34:12.964Z,0.47
2018-06-30T12:36:42.874Z,0.70
2018-06-30T12:39:13.010Z,0.60
2018-06-30T12:41:42.880Z,0.50
2018-06-30T12:44:12.947Z,0.60
2018-06-30T12:46:42.885Z,0.70
2018-06-30T12:49:12.808Z,0.50
2018-06-30T12:51:42.843Z,0.50
2018-06-30T12:54:12.788Z,0.70
2018-06-30T12:56:42.999Z,0.87
2018-06-30T12:59:12.929Z,0.53
2018-06-30T13:01:42.795Z,0.50
2018-06-30T13:04:12.975Z,0.50
2018-06-30T13:06:42.829Z,0.50
2018-06-30T13:09:13.488Z,0.67
2018-06-30T13:11:43.327Z,0.50
2018-06-30T13:14:13.329Z,0.60
2018-06-30T13:16:43.184Z,0.80
2018-06-30T13:19:13.381Z,0.60
2018-06-30T13:21:43.304Z,0.50
2018-06-30T13:24:13.204Z,0.60
2018-06-30T13:26:43.293Z,0.60
2018-06-30T13:29:13.194Z,0.50
2018-06-30T13:31:43.594Z,0.57
2018-06-30T13:34:13.614Z,0.80
2018-06-30T13:36:43.548Z,0.70
2018-06-30T13:39:15.823Z,0.70
2018-06-30T13:41:45.521Z,1.20
2018-06-30T13:44:15.444Z,0.70
2018-06-30T13:46:45.489Z,0.90
2018-06-30T13:49:15.453Z,1.00
2018-06-30T13:51:45.593Z,0.90
2018-06-30T13:54:15.446Z,1.10
2018-06-30T13:56:45.444Z,0.93
2018-06-30T13:59:15.326Z,0.77
2018-06-30T14:01:45.483Z,0.80
2018-06-30T14:04:15.764Z,0.50
2018-06-30T14:06:45.549Z,0.50
2018-06-30T14:09:15.436Z,0.60
2018-06-30T14:11:45.970Z,0.97
2018-06-30T14:14:15.873Z,0.70
2018-06-30T14:16:45.689Z,0.60
2018-06-30T14:19:15.734Z,0.50
2018-06-30T14:21:46.239Z,0.70
2018-06-30T14:24:15.951Z,0.70
2018-06-30T14:26:45.976Z,0.93
2018-06-30T14:29:15.781Z,0.60
2018-06-30T14:31:45.927Z,0.50
2018-06-30T14:34:17.365Z,0.60
2018-06-30T14:36:47.111Z,0.50
2018-06-30T14:39:17.471Z,0.53
2018-06-30T14:41:47.631Z,0.60
2018-06-30T14:44:22.513Z,0.60
2018-06-30T14:46:52.723Z,0.80
2018-06-30T14:49:22.976Z,0.50
2018-06-30T14:51:53.117Z,0.50
2018-06-30T14:54:22.969Z,0.57
2018-06-30T14:56:53.371Z,0.70
2018-06-30T14:59:23.162Z,0.67
2018-06-30T15:01:53.795Z,0.73
2018-06-30T15:04:23.379Z,0.80
2018-06-30T15:06:53.282Z,0.60
2018-06-30T15:09:23.882Z,0.80
2018-06-30T15:11:53.682Z,0.80
2018-06-30T15:14:23.720Z,0.73
2018-06-30T15:16:53.801Z,0.77
2018-06-30T15:19:23.494Z,0.73
2018-06-30T15:21:53.567Z,0.60
2018-06-30T15:24:23.547Z,0.60
2018-06-30T15:26:53.548Z,0.57
2018-06-30T15:29:23.763Z,0.70
2018-06-30T15:31:54.051Z,0.60
2018-06-30T15:34:23.871Z,0.70
2018-06-30T15:36:53.807Z,0.50
2018-06-30T15:39:23.520Z,1.00
2018-06-30T15:41:53.235Z,0.60
2018-06-30T15:44:23.003Z,0.60
2018-06-30T15:46:53.089Z,0.60
2018-06-30T15:49:22.937Z,0.70
2018-06-30T15:51:52.940Z,0.80
2018-06-30T15:54:23.121Z,0.80
2018-06-30T15:56:52.941Z,0.80
2018-06-30T15:59:23.019Z,0.90
2018-06-30T16:01:54.341Z,0.87
2018-06-30T16:04:24.275Z,0.70
2018-06-30T16:06:54.349Z,0.70
2018-06-30T16:09:24.573Z,0.73
2018-06-30T16:11:54.398Z,0.80
2018-06-30T16:14:24.396Z,1.50
2018-06-30T16:16:54.522Z,1.77
2018-06-30T16:19:24.702Z,1.83
2018-06-30T16:21:54.671Z,1.20
2018-06-30T16:24:24.283Z,1.50
2018-06-30T16:26:54.417Z,1.40
2018-06-30T16:29:24.901Z,1.17
2018-06-30T16:31:55.051Z,1.30
2018-06-30T16:34:25.223Z,1.00
2018-06-30T16:36:55.623Z,0.90
2018-06-30T16:39:25.511Z,1.07
2018-06-30T16:41:55.591Z,1.47
2018-06-30T16:44:26.133Z,0.93
2018-06-30T16:46:56.355Z,2.07
2018-06-30T16:49:25.867Z,1.33
2018-06-30T16:51:55.737Z,1.20
2018-06-30T16:54:25.805Z,1.30
2018-06-30T16:56:55.596Z,0.90
2018-06-30T16:59:26.139Z,1.00
2018-06-30T17:01:56.834Z,1.13
2018-06-30T17:04:27.159Z,0.80
2018-06-30T17:06:57.567Z,0.90
2018-06-30T17:09:27.590Z,0.57
2018-06-30T17:11:58.080Z,0.60
2018-06-30T17:14:27.969Z,0.60
2018-06-30T17:16:58.028Z,0.80
2018-06-30T17:19:28.093Z,0.60
2018-06-30T17:21:58.113Z,0.67
2018-06-30T17:24:28.151Z,0.80
2018-06-30T17:26:58.142Z,0.67
2018-06-30T17:29:28.280Z,0.77
2018-06-30T17:31:58.751Z,0.70
2018-06-30T17:34:29.769Z,0.77
2018-06-30T17:36:59.547Z,1.00
2018-06-30T17:39:29.733Z,0.90
2018-06-30T17:42:00.643Z,0.70
2018-06-30T17:44:30.739Z,0.57
2018-06-30T17:47:00.983Z,0.80
2018-06-30T17:49:31.005Z,0.53
2018-06-30T17:52:01.171Z,0.60
2018-06-30T17:54:31.827Z,0.70
2018-06-30T17:57:02.759Z,0.70
2018-06-30T17:59:33.237Z,0.63
2018-06-30T18:02:03.377Z,1.00
2018-06-30T18:04:33.542Z,0.80
2018-06-30T18:07:03.466Z,0.60
2018-06-30T18:09:33.424Z,0.70
2018-06-30T18:12:04.284Z,0.53
2018-06-30T18:14:34.635Z,0.60
2018-06-30T18:17:04.883Z,0.70
2018-06-30T18:19:35.430Z,0.80
2018-06-30T18:22:05.547Z,0.80
2018-06-30T18:24:37.545Z,0.60
2018-06-30T18:27:08.490Z,0.90
2018-06-30T18:29:38.795Z,0.80
2018-06-30T18:32:08.787Z,0.80
2018-06-30T18:34:38.700Z,0.93
2018-06-30T18:37:09.626Z,0.73
2018-06-30T18:39:40.069Z,1.07
2018-06-30T18:42:11.052Z,1.10
2018-06-30T18:44:42.159Z,0.90
2018-06-30T18:47:12.622Z,1.00
2018-06-30T18:49:42.984Z,0.80
2018-06-30T18:52:13.436Z,0.90
2018-06-30T18:54:44.285Z,0.83
2018-06-30T18:57:14.713Z,1.10
2018-06-30T18:59:45.202Z,0.90
2018-06-30T19:02:15.884Z,1.00
2018-06-30T19:04:46.063Z,1.00
2018-06-30T19:07:16.020Z,1.07
2018-06-30T19:09:48.095Z,0.90
2018-06-30T19:12:18.405Z,0.97
2018-06-30T19:14:48.659Z,1.00
2018-06-30T19:17:19.231Z,1.00
2018-06-30T19:19:49.625Z,1.00
2018-06-30T19:22:19.487Z,0.90
2018-06-30T19:24:49.570Z,1.17
2018-06-30T19:27:20.556Z,1.40
2018-06-30T19:29:51.625Z,1.37
2018-06-30T19:32:22.611Z,1.17
2018-06-30T19:34:53.065Z,0.97
2018-06-30T19:37:23.314Z,1.13
2018-06-30T19:39:54.308Z,1.50
2018-06-30T19:42:24.303Z,0.90
2018-06-30T19:44:54.680Z,1.13
2018-06-30T19:47:25.738Z,1.30
2018-06-30T19:49:55.829Z,0.90
2018-06-30T19:52:25.560Z,0.80
2018-06-30T19:54:55.152Z,0.90
2018-06-30T19:57:24.943Z,0.90
2018-06-30T19:59:54.389Z,1.03
2018-06-30T20:02:23.917Z,0.70
2018-06-30T20:04:53.521Z,0.90
2018-06-30T20:07:22.869Z,1.03
2018-06-30T20:09:52.031Z,0.93
2018-06-30T20:12:21.063Z,1.00
2018-06-30T20:14:50.142Z,1.00
2018-06-30T20:17:19.253Z,1.00
2018-06-30T20:19:48.716Z,0.87
2018-06-30T20:22:18.012Z,1.00
2018-06-30T20:24:47.213Z,0.90
2018-06-30T20:27:16.406Z,1.10
2018-06-30T20:29:45.604Z,0.90
2018-06-30T20:32:14.802Z,0.97
2018-06-30T20:34:43.872Z,0.80
2018-06-30T20:37:12.973Z,0.73
2018-06-30T20:39:42.264Z,0.80
2018-06-30T20:42:11.776Z,1.00
2018-06-30T20:44:41.100Z,1.13
2018-06-30T20:47:10.186Z,0.90
2018-06-30T20:49:39.513Z,0.90
2018-06-30T20:52:08.726Z,0.93
2018-06-30T20:54:38.048Z,1.03
2018-06-30T20:57:07.418Z,1.00
2018-06-30T20:59:36.610Z,1.00
2018-06-30T21:02:05.922Z,0.97
2018-06-30T21:04:35.248Z,0.93
2018-06-30T21:07:04.834Z,1.00
2018-06-30T21:09:34.914Z,1.00
2018-06-30T21:12:04.302Z,0.70
2018-06-30T21:14:33.609Z,1.10
2018-06-30T21:17:02.742Z,1.20
2018-06-30T21:19:31.842Z,1.20
2018-06-30T21:22:01.087Z,1.33
2018-06-30T21:24:30.296Z,1.20
2018-06-30T21:26:59.616Z,1.17
2018-06-30T21:29:28.900Z,1.00
2018-06-30T21:31:58.180Z,1.00
2018-06-30T21:34:27.636Z,0.90
2018-06-30T21:36:56.900Z,1.10
2018-06-30T21:39:26.398Z,0.80
2018-06-30T21:41:55.552Z,1.00
2018-06-30T21:44:24.816Z,1.00
2018-06-30T21:46:54.000Z,1.27
2018-06-30T21:49:23.302Z,1.03
2018-06-30T21:51:52.438Z,0.80
2018-06-30T21:54:21.640Z,1.10
2018-06-30T21:56:50.981Z,0.90
2018-06-30T21:59:20.174Z,0.70
2018-06-30T22:01:49.371Z,0.90
2018-06-30T22:04:18.619Z,0.83
2018-06-30T22:06:47.816Z,1.07
2018-06-30T22:09:17.126Z,1.00
2018-06-30T22:11:46.365Z,1.10
2018-06-30T22:14:15.558Z,1.13
2018-06-30T22:16:44.886Z,1.20
2018-06-30T22:19:14.216Z,1.20
2018-06-30T22:21:43.465Z,0.80
2018-06-30T22:24:12.585Z,1.00
2018-06-30T22:26:41.810Z,1.03
2018-06-30T22:29:11.203Z,0.90
2018-06-30T22:31:40.411Z,1.20
2018-06-30T22:34:09.666Z,0.90
2018-06-30T22:36:38.953Z,1.10
2018-06-30T22:39:10.708Z,0.83
2018-06-30T22:41:39.859Z,0.90
2018-06-30T22:44:09.409Z,0.93
2018-06-30T22:46:38.512Z,1.20
2018-06-30T22:49:07.836Z,0.90
2018-06-30T22:51:37.152Z,0.80
2018-06-30T22:54:07.119Z,1.00
2018-06-30T22:56:36.354Z,1.00
2018-06-30T22:59:05.519Z,0.90
2018-06-30T23:01:34.773Z,0.77
2018-06-30T23:04:04.289Z,0.90
2018-06-30T23:06:33.558Z,1.23
2018-06-30T23:09:02.778Z,1.10
2018-06-30T23:11:32.014Z,0.80
2018-06-30T23:14:01.425Z,1.00
2018-06-30T23:16:30.522Z,0.97
2018-06-30T23:18:59.768Z,1.00
2018-06-30T23:21:28.854Z,0.80
2018-06-30T23:23:57.993Z,0.83
2018-06-30T23:26:27.162Z,1.40
2018-06-30T23:28:56.278Z,0.90
2018-06-30T23:31:25.386Z,0.77
2018-06-30T23:33:54.652Z,1.00
2018-06-30T23:36:23.872Z,0.83
2018-06-30T23:38:53.318Z,0.90
2018-06-30T23:41:22.398Z,0.87
2018-06-30T23:43:51.698Z,0.90
2018-06-30T23:46:21.195Z,0.77
2018-06-30T23:48:50.534Z,0.90
2018-06-30T23:51:19.892Z,1.20
2018-06-30T23:53:49.334Z,0.60
2018-06-30T23:56:18.552Z,0.70
2018-06-30T23:58:47.742Z,0.80
